sensor_id;sensor_type;location;lat;lon;timestamp;P1;durP1;ratioP1;P2;durP2;ratioP2
8435;SDS011;4255;48.730;9.156;2024-02-26T00:00:31;3.40;;;3.10;;
8435;SDS011;4255;48.730;9.156;2024-02-26T00:02:57;6.60;;;5.20;;
8435;SDS011;4255;48.730;9.156;2024-02-26T00:05:22;4.00;;;3.70;;
8435;SDS011;4255;48.730;9.156;2024-02-26T00:07:48;3.70;;;3.50;;
8435;SDS011;4255;48.730;9.156;2024-02-26T00:10:14;4.43;;;4.03;;
8435;SDS011;4255;48.730;9.156;2024-02-26T00:12:39;4.00;;;3.60;;
8435;SDS011;4255;48.730;9.156;2024-02-26T00:15:08;5.17;;;4.37;;
8435;SDS011;4255;48.730;9.156;2024-02-26T00:17:35;3.97;;;3.60;;
8435;SDS011;4255;48.730;9.156;2024-02-26T00:20:01;4.30;;;3.90;;
8435;SDS011;4255;48.730;9.156;2024-02-26T00:22:29;3.15;;;2.95;;
8435;SDS011;4255;48.730;9.156;2024-02-26T00:24:56;4.85;;;3.53;;
8435;SDS011;4255;48.730;9.156;2024-02-26T00:27:22;4.37;;;4.07;;
8435;SDS011;4255;48.730;9.156;2024-02-26T00:29:47;3.90;;;3.60;;
8435;SDS011;4255;48.730;9.156;2024-02-26T00:32:13;3.37;;;3.07;;
8435;SDS011;4255;48.730;9.156;2024-02-26T00:34:39;3.73;;;3.43;;
8435;SDS011;4255;48.730;9.156;2024-02-26T00:37:04;3.37;;;3.07;;
8435;SDS011;4255;48.730;9.156;2024-02-26T00:39:30;3.27;;;2.97;;
8435;SDS011;4255;48.730;9.156;2024-02-26T00:41:56;4.03;;;3.73;;
8435;SDS011;4255;48.730;9.156;2024-02-26T00:44:22;3.63;;;3.33;;
8435;SDS011;4255;48.730;9.156;2024-02-26T00:46:47;3.80;;;3.43;;
8435;SDS011;4255;48.730;9.156;2024-02-26T00:49:13;3.20;;;3.00;;
8435;SDS011;4255;48.730;9.156;2024-02-26T00:51:39;3.37;;;3.17;;
8435;SDS011;4255;48.730;9.156;2024-02-26T00:54:04;3.00;;;2.80;;
8435;SDS011;4255;48.730;9.156;2024-02-26T00:56:30;3.47;;;3.13;;
8435;SDS011;4255;48.730;9.156;2024-02-26T00:58:55;3.13;;;2.87;;
8435;SDS011;4255;48.730;9.156;2024-02-26T01:01:21;5.30;;;3.30;;
8435;SDS011;4255;48.730;9.156;2024-02-26T01:03:47;4.77;;;3.30;;
8435;SDS011;4255;48.730;9.156;2024-02-26T01:06:12;3.30;;;2.80;;
8435;SDS011;4255;48.730;9.156;2024-02-26T01:08:38;2.87;;;2.67;;
8435;SDS011;4255;48.730;9.156;2024-02-26T01:11:04;3.60;;;3.30;;
8435;SDS011;4255;48.730;9.156;2024-02-26T01:13:29;3.33;;;3.03;;
8435;SDS011;4255;48.730;9.156;2024-02-26T01:15:55;3.60;;;3.30;;
8435;SDS011;4255;48.730;9.156;2024-02-26T01:18:21;4.20;;;3.80;;
8435;SDS011;4255;48.730;9.156;2024-02-26T01:20:47;3.30;;;3.10;;
8435;SDS011;4255;48.730;9.156;2024-02-26T01:23:13;3.30;;;3.10;;
8435;SDS011;4255;48.730;9.156;2024-02-26T01:25:38;7.40;;;3.10;;
8435;SDS011;4255;48.730;9.156;2024-02-26T01:28:04;3.40;;;3.10;;
8435;SDS011;4255;48.730;9.156;2024-02-26T01:30:30;3.25;;;3.05;;
8435;SDS011;4255;48.730;9.156;2024-02-26T01:32:56;3.57;;;3.30;;
8435;SDS011;4255;48.730;9.156;2024-02-26T01:35:22;2.97;;;2.77;;
8435;SDS011;4255;48.730;9.156;2024-02-26T01:37:48;5.27;;;3.27;;
8435;SDS011;4255;48.730;9.156;2024-02-26T01:40:14;3.70;;;3.40;;
8435;SDS011;4255;48.730;9.156;2024-02-26T01:42:44;3.45;;;3.15;;
8435;SDS011;4255;48.730;9.156;2024-02-26T01:45:14;3.50;;;3.20;;
8435;SDS011;4255;48.730;9.156;2024-02-26T01:47:46;3.70;;;2.97;;
8435;SDS011;4255;48.730;9.156;2024-02-26T01:50:12;5.37;;;3.83;;
8435;SDS011;4255;48.730;9.156;2024-02-26T01:52:37;3.67;;;3.40;;
8435;SDS011;4255;48.730;9.156;2024-02-26T01:55:03;3.90;;;3.53;;
8435;SDS011;4255;48.730;9.156;2024-02-26T01:57:29;3.53;;;3.33;;
8435;SDS011;4255;48.730;9.156;2024-02-26T01:59:55;3.80;;;3.30;;
8435;SDS011;4255;48.730;9.156;2024-02-26T02:02:21;4.80;;;3.60;;
8435;SDS011;4255;48.730;9.156;2024-02-26T02:04:46;4.27;;;3.47;;
8435;SDS011;4255;48.730;9.156;2024-02-26T02:07:12;4.90;;;4.40;;
8435;SDS011;4255;48.730;9.156;2024-02-26T02:09:38;3.97;;;3.60;;
8435;SDS011;4255;48.730;9.156;2024-02-26T02:12:04;3.40;;;3.20;;
8435;SDS011;4255;48.730;9.156;2024-02-26T02:14:31;3.30;;;3.10;;
8435;SDS011;4255;48.730;9.156;2024-02-26T02:16:57;2.90;;;2.63;;
8435;SDS011;4255;48.730;9.156;2024-02-26T02:19:22;3.07;;;2.77;;
8435;SDS011;4255;48.730;9.156;2024-02-26T02:21:48;3.50;;;3.30;;
8435;SDS011;4255;48.730;9.156;2024-02-26T02:24:14;3.23;;;3.00;;
8435;SDS011;4255;48.730;9.156;2024-02-26T02:26:39;2.40;;;2.30;;
8435;SDS011;4255;48.730;9.156;2024-02-26T02:29:05;2.93;;;2.60;;
8435;SDS011;4255;48.730;9.156;2024-02-26T02:31:31;2.55;;;2.25;;
8435;SDS011;4255;48.730;9.156;2024-02-26T02:33:58;1.95;;;1.85;;
8435;SDS011;4255;48.730;9.156;2024-02-26T02:36:24;3.10;;;2.90;;
8435;SDS011;4255;48.730;9.156;2024-02-26T02:38:50;2.60;;;2.40;;
8435;SDS011;4255;48.730;9.156;2024-02-26T02:41:16;2.75;;;2.10;;
8435;SDS011;4255;48.730;9.156;2024-02-26T02:43:42;2.40;;;2.27;;
8435;SDS011;4255;48.730;9.156;2024-02-26T02:46:08;3.10;;;2.30;;
8435;SDS011;4255;48.730;9.156;2024-02-26T02:48:33;2.73;;;2.50;;
8435;SDS011;4255;48.730;9.156;2024-02-26T02:50:59;3.90;;;2.80;;
8435;SDS011;4255;48.730;9.156;2024-02-26T02:53:24;2.50;;;2.30;;
8435;SDS011;4255;48.730;9.156;2024-02-26T02:55:50;3.53;;;2.47;;
8435;SDS011;4255;48.730;9.156;2024-02-26T02:58:16;2.90;;;2.63;;
8435;SDS011;4255;48.730;9.156;2024-02-26T03:00:41;2.53;;;2.37;;
8435;SDS011;4255;48.730;9.156;2024-02-26T03:03:07;2.40;;;2.30;;
8435;SDS011;4255;48.730;9.156;2024-02-26T03:05:32;2.70;;;1.93;;
8435;SDS011;4255;48.730;9.156;2024-02-26T03:07:58;2.73;;;2.63;;
8435;SDS011;4255;48.730;9.156;2024-02-26T03:10:24;2.30;;;2.15;;
8435;SDS011;4255;48.730;9.156;2024-02-26T03:12:50;2.00;;;1.90;;
8435;SDS011;4255;48.730;9.156;2024-02-26T03:15:15;1.90;;;1.80;;
8435;SDS011;4255;48.730;9.156;2024-02-26T03:17:41;1.83;;;1.73;;
8435;SDS011;4255;48.730;9.156;2024-02-26T03:20:07;2.10;;;2.00;;
8435;SDS011;4255;48.730;9.156;2024-02-26T03:22:34;1.95;;;1.85;;
8435;SDS011;4255;48.730;9.156;2024-02-26T03:25:00;1.40;;;1.30;;
8435;SDS011;4255;48.730;9.156;2024-02-26T03:27:26;1.30;;;1.30;;
8435;SDS011;4255;48.730;9.156;2024-02-26T03:29:52;1.40;;;1.30;;
8435;SDS011;4255;48.730;9.156;2024-02-26T03:32:18;1.90;;;1.80;;
8435;SDS011;4255;48.730;9.156;2024-02-26T03:34:43;1.63;;;1.53;;
8435;SDS011;4255;48.730;9.156;2024-02-26T03:37:09;1.53;;;1.43;;
8435;SDS011;4255;48.730;9.156;2024-02-26T03:39:36;1.48;;;1.40;;
8435;SDS011;4255;48.730;9.156;2024-02-26T03:42:02;1.52;;;1.42;;
8435;SDS011;4255;48.730;9.156;2024-02-26T03:44:28;25.63;;;14.10;;
8435;SDS011;4255;48.730;9.156;2024-02-26T03:46:53;2.70;;;2.50;;
8435;SDS011;4255;48.730;9.156;2024-02-26T03:49:19;19.70;;;11.60;;
8435;SDS011;4255;48.730;9.156;2024-02-26T03:51:45;46.73;;;20.20;;
8435;SDS011;4255;48.730;9.156;2024-02-26T03:54:10;18.30;;;10.70;;
8435;SDS011;4255;48.730;9.156;2024-02-26T03:56:36;8.60;;;5.70;;
8435;SDS011;4255;48.730;9.156;2024-02-26T03:59:01;3.23;;;2.83;;
8435;SDS011;4255;48.730;9.156;2024-02-26T04:01:27;1.97;;;1.87;;
8435;SDS011;4255;48.730;9.156;2024-02-26T04:03:53;2.07;;;1.97;;
8435;SDS011;4255;48.730;9.156;2024-02-26T04:06:19;1.97;;;1.87;;
8435;SDS011;4255;48.730;9.156;2024-02-26T04:08:46;1.90;;;1.80;;
8435;SDS011;4255;48.730;9.156;2024-02-26T04:11:12;1.70;;;1.60;;
8435;SDS011;4255;48.730;9.156;2024-02-26T04:13:38;2.00;;;1.90;;
8435;SDS011;4255;48.730;9.156;2024-02-26T04:16:04;1.93;;;1.83;;
8435;SDS011;4255;48.730;9.156;2024-02-26T04:18:31;1.73;;;1.63;;
8435;SDS011;4255;48.730;9.156;2024-02-26T04:20:57;2.20;;;2.10;;
8435;SDS011;4255;48.730;9.156;2024-02-26T04:23:23;1.93;;;1.83;;
8435;SDS011;4255;48.730;9.156;2024-02-26T04:25:48;2.10;;;2.00;;
8435;SDS011;4255;48.730;9.156;2024-02-26T04:28:14;2.00;;;1.90;;
8435;SDS011;4255;48.730;9.156;2024-02-26T04:30:40;2.03;;;1.83;;
8435;SDS011;4255;48.730;9.156;2024-02-26T04:33:06;2.35;;;2.25;;
8435;SDS011;4255;48.730;9.156;2024-02-26T04:35:32;2.20;;;2.10;;
8435;SDS011;4255;48.730;9.156;2024-02-26T04:37:58;1.97;;;1.87;;
8435;SDS011;4255;48.730;9.156;2024-02-26T04:40:23;1.90;;;1.80;;
8435;SDS011;4255;48.730;9.156;2024-02-26T04:42:49;2.40;;;2.27;;
8435;SDS011;4255;48.730;9.156;2024-02-26T04:45:15;3.00;;;2.80;;
8435;SDS011;4255;48.730;9.156;2024-02-26T04:47:40;2.90;;;2.73;;
8435;SDS011;4255;48.730;9.156;2024-02-26T04:50:06;3.43;;;2.93;;
8435;SDS011;4255;48.730;9.156;2024-02-26T04:52:32;3.80;;;3.50;;
8435;SDS011;4255;48.730;9.156;2024-02-26T04:54:58;3.47;;;3.27;;
8435;SDS011;4255;48.730;9.156;2024-02-26T04:57:25;4.22;;;3.60;;
8435;SDS011;4255;48.730;9.156;2024-02-26T04:59:51;3.75;;;3.45;;
8435;SDS011;4255;48.730;9.156;2024-02-26T05:02:17;3.93;;;3.57;;
8435;SDS011;4255;48.730;9.156;2024-02-26T05:04:42;4.73;;;4.33;;
8435;SDS011;4255;48.730;9.156;2024-02-26T05:07:08;6.03;;;4.37;;
8435;SDS011;4255;48.730;9.156;2024-02-26T05:09:34;4.03;;;3.73;;
8435;SDS011;4255;48.730;9.156;2024-02-26T05:12:00;3.55;;;3.35;;
8435;SDS011;4255;48.730;9.156;2024-02-26T05:14:26;4.27;;;3.97;;
8435;SDS011;4255;48.730;9.156;2024-02-26T05:16:51;4.97;;;4.23;;
8435;SDS011;4255;48.730;9.156;2024-02-26T05:19:17;4.37;;;3.83;;
8435;SDS011;4255;48.730;9.156;2024-02-26T05:21:42;3.73;;;3.53;;
8435;SDS011;4255;48.730;9.156;2024-02-26T05:24:09;4.50;;;4.18;;
8435;SDS011;4255;48.730;9.156;2024-02-26T05:26:35;3.97;;;3.63;;
8435;SDS011;4255;48.730;9.156;2024-02-26T05:29:01;3.57;;;3.27;;
8435;SDS011;4255;48.730;9.156;2024-02-26T05:31:28;4.80;;;3.60;;
8435;SDS011;4255;48.730;9.156;2024-02-26T05:33:54;4.05;;;3.75;;
8435;SDS011;4255;48.730;9.156;2024-02-26T05:36:22;4.73;;;3.63;;
8435;SDS011;4255;48.730;9.156;2024-02-26T05:38:49;4.70;;;4.20;;
8435;SDS011;4255;48.730;9.156;2024-02-26T05:41:15;4.60;;;4.03;;
8435;SDS011;4255;48.730;9.156;2024-02-26T05:43:41;9.60;;;4.05;;
8435;SDS011;4255;48.730;9.156;2024-02-26T05:46:07;4.30;;;3.80;;
8435;SDS011;4255;48.730;9.156;2024-02-26T05:48:33;5.47;;;4.13;;
8435;SDS011;4255;48.730;9.156;2024-02-26T05:50:59;4.13;;;3.60;;
8435;SDS011;4255;48.730;9.156;2024-02-26T05:53:25;4.33;;;3.83;;
8435;SDS011;4255;48.730;9.156;2024-02-26T05:55:50;4.10;;;3.70;;
8435;SDS011;4255;48.730;9.156;2024-02-26T05:58:16;4.83;;;4.00;;
8435;SDS011;4255;48.730;9.156;2024-02-26T06:00:41;4.13;;;3.73;;
8435;SDS011;4255;48.730;9.156;2024-02-26T06:03:07;4.20;;;3.80;;
8435;SDS011;4255;48.730;9.156;2024-02-26T06:05:33;4.93;;;3.73;;
8435;SDS011;4255;48.730;9.156;2024-02-26T06:07:58;6.10;;;3.77;;
8435;SDS011;4255;48.730;9.156;2024-02-26T06:10:24;5.10;;;4.60;;
8435;SDS011;4255;48.730;9.156;2024-02-26T06:12:50;4.33;;;3.90;;
8435;SDS011;4255;48.730;9.156;2024-02-26T06:15:15;4.90;;;3.73;;
8435;SDS011;4255;48.730;9.156;2024-02-26T06:17:42;4.97;;;4.55;;
8435;SDS011;4255;48.730;9.156;2024-02-26T06:20:07;7.97;;;6.70;;
8435;SDS011;4255;48.730;9.156;2024-02-26T06:22:37;8.00;;;5.32;;
8435;SDS011;4255;48.730;9.156;2024-02-26T06:25:04;12.70;;;8.32;;
8435;SDS011;4255;48.730;9.156;2024-02-26T06:27:30;12.57;;;8.03;;
8435;SDS011;4255;48.730;9.156;2024-02-26T06:29:56;17.23;;;6.23;;
8435;SDS011;4255;48.730;9.156;2024-02-26T06:32:21;5.40;;;4.90;;
8435;SDS011;4255;48.730;9.156;2024-02-26T06:34:48;7.15;;;4.85;;
8435;SDS011;4255;48.730;9.156;2024-02-26T06:37:13;4.97;;;4.57;;
8435;SDS011;4255;48.730;9.156;2024-02-26T06:39:39;5.30;;;4.37;;
8435;SDS011;4255;48.730;9.156;2024-02-26T06:42:06;11.07;;;5.38;;
8435;SDS011;4255;48.730;9.156;2024-02-26T06:44:31;10.53;;;4.83;;
8435;SDS011;4255;48.730;9.156;2024-02-26T06:47:00;9.27;;;5.33;;
8435;SDS011;4255;48.730;9.156;2024-02-26T06:49:26;9.20;;;5.53;;
8435;SDS011;4255;48.730;9.156;2024-02-26T06:51:52;7.53;;;4.55;;
8435;SDS011;4255;48.730;9.156;2024-02-26T06:54:18;5.10;;;3.70;;
8435;SDS011;4255;48.730;9.156;2024-02-26T06:56:44;4.67;;;4.23;;
8435;SDS011;4255;48.730;9.156;2024-02-26T06:59:09;6.70;;;4.73;;
8435;SDS011;4255;48.730;9.156;2024-02-26T07:01:35;14.43;;;4.70;;
8435;SDS011;4255;48.730;9.156;2024-02-26T07:04:01;6.30;;;5.70;;
8435;SDS011;4255;48.730;9.156;2024-02-26T07:06:27;7.30;;;5.30;;
8435;SDS011;4255;48.730;9.156;2024-02-26T07:08:52;10.48;;;8.35;;
8435;SDS011;4255;48.730;9.156;2024-02-26T07:11:19;10.63;;;9.43;;
8435;SDS011;4255;48.730;9.156;2024-02-26T07:13:45;13.73;;;9.70;;
8435;SDS011;4255;48.730;9.156;2024-02-26T07:16:11;13.15;;;10.48;;
8435;SDS011;4255;48.730;9.156;2024-02-26T07:18:37;14.07;;;10.50;;
8435;SDS011;4255;48.730;9.156;2024-02-26T07:21:04;15.75;;;11.10;;
8435;SDS011;4255;48.730;9.156;2024-02-26T07:23:29;14.83;;;9.87;;
8435;SDS011;4255;48.730;9.156;2024-02-26T07:25:55;11.00;;;9.90;;
8435;SDS011;4255;48.730;9.156;2024-02-26T07:28:21;7.20;;;6.50;;
8435;SDS011;4255;48.730;9.156;2024-02-26T07:30:46;9.50;;;5.80;;
8435;SDS011;4255;48.730;9.156;2024-02-26T07:33:12;7.87;;;5.73;;
8435;SDS011;4255;48.730;9.156;2024-02-26T07:35:38;9.80;;;4.70;;
8435;SDS011;4255;48.730;9.156;2024-02-26T07:38:04;10.03;;;4.50;;
8435;SDS011;4255;48.730;9.156;2024-02-26T07:40:30;4.25;;;3.58;;
8435;SDS011;4255;48.730;9.156;2024-02-26T07:42:55;5.20;;;4.03;;
8435;SDS011;4255;48.730;9.156;2024-02-26T07:45:21;7.53;;;3.63;;
8435;SDS011;4255;48.730;9.156;2024-02-26T07:47:47;6.17;;;4.60;;
8435;SDS011;4255;48.730;9.156;2024-02-26T07:50:13;4.30;;;3.78;;
8435;SDS011;4255;48.730;9.156;2024-02-26T07:52:39;6.37;;;4.30;;
8435;SDS011;4255;48.730;9.156;2024-02-26T07:55:05;4.57;;;3.60;;
8435;SDS011;4255;48.730;9.156;2024-02-26T07:57:34;4.03;;;3.65;;
8435;SDS011;4255;48.730;9.156;2024-02-26T08:00:00;3.78;;;3.42;;
8435;SDS011;4255;48.730;9.156;2024-02-26T08:02:26;5.00;;;3.30;;
8435;SDS011;4255;48.730;9.156;2024-02-26T08:04:51;4.07;;;3.77;;
8435;SDS011;4255;48.730;9.156;2024-02-26T08:07:17;7.23;;;3.63;;
8435;SDS011;4255;48.730;9.156;2024-02-26T08:09:42;4.67;;;4.37;;
8435;SDS011;4255;48.730;9.156;2024-02-26T08:12:08;6.90;;;4.90;;
8435;SDS011;4255;48.730;9.156;2024-02-26T08:14:34;7.17;;;4.90;;
8435;SDS011;4255;48.730;9.156;2024-02-26T08:16:59;6.40;;;4.40;;
8435;SDS011;4255;48.730;9.156;2024-02-26T08:19:25;6.07;;;5.47;;
8435;SDS011;4255;48.730;9.156;2024-02-26T08:21:52;5.70;;;5.00;;
8435;SDS011;4255;48.730;9.156;2024-02-26T08:24:17;4.47;;;4.07;;
8435;SDS011;4255;48.730;9.156;2024-02-26T08:26:43;6.73;;;6.00;;
8435;SDS011;4255;48.730;9.156;2024-02-26T08:29:08;7.40;;;4.67;;
8435;SDS011;4255;48.730;9.156;2024-02-26T08:31:34;7.27;;;4.40;;
8435;SDS011;4255;48.730;9.156;2024-02-26T08:34:02;4.07;;;3.78;;
8435;SDS011;4255;48.730;9.156;2024-02-26T08:36:28;4.47;;;4.10;;
8435;SDS011;4255;48.730;9.156;2024-02-26T08:38:55;5.15;;;4.10;;
8435;SDS011;4255;48.730;9.156;2024-02-26T08:41:20;5.67;;;4.93;;
8435;SDS011;4255;48.730;9.156;2024-02-26T08:43:46;4.67;;;4.27;;
8435;SDS011;4255;48.730;9.156;2024-02-26T08:46:12;3.93;;;3.60;;
8435;SDS011;4255;48.730;9.156;2024-02-26T08:48:38;4.57;;;4.18;;
8435;SDS011;4255;48.730;9.156;2024-02-26T08:51:07;8.68;;;4.40;;
8435;SDS011;4255;48.730;9.156;2024-02-26T08:53:34;4.07;;;3.78;;
8435;SDS011;4255;48.730;9.156;2024-02-26T08:56:03;4.32;;;3.40;;
8435;SDS011;4255;48.730;9.156;2024-02-26T08:58:29;3.77;;;3.40;;
8435;SDS011;4255;48.730;9.156;2024-02-26T09:00:55;3.50;;;3.10;;
8435;SDS011;4255;48.730;9.156;2024-02-26T09:03:20;3.20;;;3.00;;
8435;SDS011;4255;48.730;9.156;2024-02-26T09:05:46;3.20;;;2.90;;
8435;SDS011;4255;48.730;9.156;2024-02-26T09:08:12;4.13;;;2.77;;
8435;SDS011;4255;48.730;9.156;2024-02-26T09:10:38;2.87;;;2.67;;
8435;SDS011;4255;48.730;9.156;2024-02-26T09:13:04;4.45;;;4.00;;
8435;SDS011;4255;48.730;9.156;2024-02-26T09:15:30;6.13;;;3.30;;
8435;SDS011;4255;48.730;9.156;2024-02-26T09:17:56;4.80;;;3.03;;
8435;SDS011;4255;48.730;9.156;2024-02-26T09:20:21;5.13;;;2.90;;
8435;SDS011;4255;48.730;9.156;2024-02-26T09:22:48;4.38;;;3.38;;
8435;SDS011;4255;48.730;9.156;2024-02-26T09:25:14;6.53;;;3.47;;
8435;SDS011;4255;48.730;9.156;2024-02-26T09:27:41;3.15;;;2.95;;
8435;SDS011;4255;48.730;9.156;2024-02-26T09:30:08;3.72;;;3.42;;
8435;SDS011;4255;48.730;9.156;2024-02-26T09:32:35;3.15;;;2.20;;
8435;SDS011;4255;48.730;9.156;2024-02-26T09:35:01;2.80;;;2.60;;
8435;SDS011;4255;48.730;9.156;2024-02-26T09:37:27;2.75;;;2.42;;
8435;SDS011;4255;48.730;9.156;2024-02-26T09:39:52;4.90;;;3.90;;
8435;SDS011;4255;48.730;9.156;2024-02-26T09:42:18;3.43;;;3.13;;
8435;SDS011;4255;48.730;9.156;2024-02-26T09:44:45;4.82;;;4.03;;
8435;SDS011;4255;48.730;9.156;2024-02-26T09:47:11;9.68;;;4.85;;
8435;SDS011;4255;48.730;9.156;2024-02-26T09:49:42;3.90;;;3.50;;
8435;SDS011;4255;48.730;9.156;2024-02-26T09:52:15;4.25;;;3.20;;
8435;SDS011;4255;48.730;9.156;2024-02-26T09:54:42;2.70;;;2.50;;
8435;SDS011;4255;48.730;9.156;2024-02-26T09:57:12;5.45;;;3.05;;
8435;SDS011;4255;48.730;9.156;2024-02-26T09:59:41;5.37;;;2.60;;
8435;SDS011;4255;48.730;9.156;2024-02-26T10:02:11;5.47;;;2.60;;
8435;SDS011;4255;48.730;9.156;2024-02-26T10:04:39;2.80;;;2.40;;
8435;SDS011;4255;48.730;9.156;2024-02-26T10:07:07;3.20;;;2.90;;
8435;SDS011;4255;48.730;9.156;2024-02-26T10:09:35;2.60;;;2.40;;
8435;SDS011;4255;48.730;9.156;2024-02-26T10:12:02;2.50;;;2.30;;
8435;SDS011;4255;48.730;9.156;2024-02-26T10:14:29;3.13;;;2.57;;
8435;SDS011;4255;48.730;9.156;2024-02-26T10:16:55;3.60;;;3.20;;
8435;SDS011;4255;48.730;9.156;2024-02-26T10:19:28;3.60;;;3.20;;
8435;SDS011;4255;48.730;9.156;2024-02-26T10:21:58;3.23;;;2.93;;
8435;SDS011;4255;48.730;9.156;2024-02-26T10:24:28;2.90;;;2.63;;
8435;SDS011;4255;48.730;9.156;2024-02-26T10:26:55;4.90;;;2.93;;
8435;SDS011;4255;48.730;9.156;2024-02-26T10:29:21;4.80;;;4.10;;
8435;SDS011;4255;48.730;9.156;2024-02-26T10:31:48;3.73;;;3.47;;
8435;SDS011;4255;48.730;9.156;2024-02-26T10:34:15;6.00;;;4.23;;
8435;SDS011;4255;48.730;9.156;2024-02-26T10:36:41;4.43;;;4.03;;
8435;SDS011;4255;48.730;9.156;2024-02-26T10:39:07;4.60;;;4.20;;
8435;SDS011;4255;48.730;9.156;2024-02-26T10:41:33;5.10;;;4.07;;
8435;SDS011;4255;48.730;9.156;2024-02-26T10:43:59;4.37;;;3.97;;
8435;SDS011;4255;48.730;9.156;2024-02-26T10:46:25;6.80;;;4.13;;
8435;SDS011;4255;48.730;9.156;2024-02-26T10:48:52;5.83;;;4.70;;
8435;SDS011;4255;48.730;9.156;2024-02-26T10:51:20;5.73;;;4.67;;
8435;SDS011;4255;48.730;9.156;2024-02-26T10:53:51;4.23;;;3.90;;
8435;SDS011;4255;48.730;9.156;2024-02-26T10:56:27;4.27;;;3.93;;
8435;SDS011;4255;48.730;9.156;2024-02-26T10:58:57;5.37;;;4.87;;
8435;SDS011;4255;48.730;9.156;2024-02-26T11:01:23;5.60;;;4.90;;
8435;SDS011;4255;48.730;9.156;2024-02-26T11:03:51;4.20;;;3.80;;
8435;SDS011;4255;48.730;9.156;2024-02-26T11:06:18;5.40;;;3.43;;
8435;SDS011;4255;48.730;9.156;2024-02-26T11:08:49;3.60;;;3.30;;
8435;SDS011;4255;48.730;9.156;2024-02-26T11:11:18;4.40;;;3.07;;
8435;SDS011;4255;48.730;9.156;2024-02-26T11:13:45;3.63;;;3.33;;
8435;SDS011;4255;48.730;9.156;2024-02-26T11:16:18;3.30;;;2.70;;
8435;SDS011;4255;48.730;9.156;2024-02-26T11:18:47;4.50;;;2.97;;
8435;SDS011;4255;48.730;9.156;2024-02-26T11:21:16;3.97;;;3.67;;
8435;SDS011;4255;48.730;9.156;2024-02-26T11:23:52;3.97;;;3.67;;
8435;SDS011;4255;48.730;9.156;2024-02-26T11:26:18;3.53;;;2.93;;
8435;SDS011;4255;48.730;9.156;2024-02-26T11:28:45;4.33;;;3.70;;
8435;SDS011;4255;48.730;9.156;2024-02-26T11:31:12;4.20;;;3.13;;
8435;SDS011;4255;48.730;9.156;2024-02-26T11:33:38;2.67;;;2.47;;
8435;SDS011;4255;48.730;9.156;2024-02-26T11:36:08;3.20;;;3.00;;
8435;SDS011;4255;48.730;9.156;2024-02-26T11:38:35;3.20;;;2.97;;
8435;SDS011;4255;48.730;9.156;2024-02-26T11:41:01;3.10;;;2.90;;
8435;SDS011;4255;48.730;9.156;2024-02-26T11:46:24;2.20;;;2.10;;
8435;SDS011;4255;48.730;9.156;2024-02-26T11:49:01;2.90;;;2.70;;
8435;SDS011;4255;48.730;9.156;2024-02-26T11:51:32;3.03;;;2.73;;
8435;SDS011;4255;48.730;9.156;2024-02-26T11:53:59;2.40;;;2.20;;
8435;SDS011;4255;48.730;9.156;2024-02-26T11:56:25;2.63;;;2.43;;
8435;SDS011;4255;48.730;9.156;2024-02-26T11:59:01;4.83;;;2.60;;
8435;SDS011;4255;48.730;9.156;2024-02-26T12:01:47;14.20;;;2.67;;
8435;SDS011;4255;48.730;9.156;2024-02-26T12:04:21;2.73;;;1.87;;
8435;SDS011;4255;48.730;9.156;2024-02-26T12:06:52;4.80;;;2.30;;
8435;SDS011;4255;48.730;9.156;2024-02-26T12:09:37;2.90;;;2.40;;
8435;SDS011;4255;48.730;9.156;2024-02-26T12:12:08;2.47;;;2.27;;
8435;SDS011;4255;48.730;9.156;2024-02-26T12:14:39;2.90;;;2.30;;
8435;SDS011;4255;48.730;9.156;2024-02-26T12:17:06;2.30;;;2.10;;
8435;SDS011;4255;48.730;9.156;2024-02-26T12:19:40;2.93;;;2.60;;
8435;SDS011;4255;48.730;9.156;2024-02-26T12:22:06;2.20;;;2.00;;
8435;SDS011;4255;48.730;9.156;2024-02-26T12:24:33;2.43;;;2.27;;
8435;SDS011;4255;48.730;9.156;2024-02-26T12:26:58;2.50;;;2.33;;
8435;SDS011;4255;48.730;9.156;2024-02-26T12:29:24;3.80;;;2.53;;
8435;SDS011;4255;48.730;9.156;2024-02-26T12:31:50;2.83;;;2.63;;
8435;SDS011;4255;48.730;9.156;2024-02-26T12:34:16;2.07;;;1.97;;
8435;SDS011;4255;48.730;9.156;2024-02-26T12:36:42;2.30;;;2.20;;
8435;SDS011;4255;48.730;9.156;2024-02-26T12:39:07;2.27;;;2.07;;
8435;SDS011;4255;48.730;9.156;2024-02-26T12:41:34;2.53;;;2.30;;
8435;SDS011;4255;48.730;9.156;2024-02-26T12:44:00;2.30;;;2.20;;
8435;SDS011;4255;48.730;9.156;2024-02-26T12:46:26;2.60;;;2.10;;
8435;SDS011;4255;48.730;9.156;2024-02-26T12:48:54;2.30;;;2.10;;
8435;SDS011;4255;48.730;9.156;2024-02-26T12:51:22;2.40;;;2.20;;
8435;SDS011;4255;48.730;9.156;2024-02-26T12:53:49;4.10;;;2.23;;
8435;SDS011;4255;48.730;9.156;2024-02-26T12:56:17;3.50;;;2.30;;
8435;SDS011;4255;48.730;9.156;2024-02-26T12:58:43;2.60;;;2.40;;
8435;SDS011;4255;48.730;9.156;2024-02-26T13:01:14;1.97;;;1.87;;
8435;SDS011;4255;48.730;9.156;2024-02-26T13:03:40;2.50;;;2.30;;
8435;SDS011;4255;48.730;9.156;2024-02-26T13:06:06;2.43;;;2.20;;
8435;SDS011;4255;48.730;9.156;2024-02-26T13:08:33;3.60;;;2.40;;
8435;SDS011;4255;48.730;9.156;2024-02-26T13:10:59;2.83;;;2.33;;
8435;SDS011;4255;48.730;9.156;2024-02-26T13:13:25;2.50;;;2.30;;
8435;SDS011;4255;48.730;9.156;2024-02-26T13:16:00;3.47;;;2.50;;
8435;SDS011;4255;48.730;9.156;2024-02-26T13:18:31;2.70;;;2.50;;
8435;SDS011;4255;48.730;9.156;2024-02-26T13:21:07;2.93;;;2.73;;
8435;SDS011;4255;48.730;9.156;2024-02-26T13:23:34;2.50;;;2.30;;
8435;SDS011;4255;48.730;9.156;2024-02-26T13:26:00;2.70;;;2.03;;
8435;SDS011;4255;48.730;9.156;2024-02-26T13:28:26;2.10;;;2.00;;
8435;SDS011;4255;48.730;9.156;2024-02-26T13:30:57;1.60;;;1.50;;
8435;SDS011;4255;48.730;9.156;2024-02-26T13:33:24;1.50;;;1.40;;
8435;SDS011;4255;48.730;9.156;2024-02-26T13:35:51;1.70;;;1.60;;
8435;SDS011;4255;48.730;9.156;2024-02-26T13:38:17;1.33;;;1.30;;
8435;SDS011;4255;48.730;9.156;2024-02-26T13:40:43;1.30;;;1.20;;
8435;SDS011;4255;48.730;9.156;2024-02-26T13:43:09;1.50;;;1.40;;
8435;SDS011;4255;48.730;9.156;2024-02-26T13:45:35;2.70;;;1.60;;
8435;SDS011;4255;48.730;9.156;2024-02-26T13:48:03;1.70;;;1.60;;
8435;SDS011;4255;48.730;9.156;2024-02-26T13:50:30;1.53;;;1.43;;
8435;SDS011;4255;48.730;9.156;2024-02-26T13:52:56;1.90;;;1.80;;
8435;SDS011;4255;48.730;9.156;2024-02-26T13:55:23;3.57;;;2.17;;
8435;SDS011;4255;48.730;9.156;2024-02-26T13:57:54;1.83;;;1.70;;
8435;SDS011;4255;48.730;9.156;2024-02-26T14:00:20;2.70;;;2.30;;
8435;SDS011;4255;48.730;9.156;2024-02-26T14:02:46;1.70;;;1.60;;
8435;SDS011;4255;48.730;9.156;2024-02-26T14:05:11;2.50;;;2.37;;
8435;SDS011;4255;48.730;9.156;2024-02-26T14:07:37;2.63;;;2.23;;
8435;SDS011;4255;48.730;9.156;2024-02-26T14:10:04;2.70;;;2.17;;
8435;SDS011;4255;48.730;9.156;2024-02-26T14:12:30;2.50;;;2.17;;
8435;SDS011;4255;48.730;9.156;2024-02-26T14:14:55;2.60;;;2.40;;
8435;SDS011;4255;48.730;9.156;2024-02-26T14:17:22;5.23;;;2.30;;
8435;SDS011;4255;48.730;9.156;2024-02-26T14:19:47;2.73;;;2.53;;
8435;SDS011;4255;48.730;9.156;2024-02-26T14:22:14;3.73;;;2.37;;
8435;SDS011;4255;48.730;9.156;2024-02-26T14:24:41;2.87;;;2.60;;
8435;SDS011;4255;48.730;9.156;2024-02-26T14:27:10;6.00;;;2.47;;
8435;SDS011;4255;48.730;9.156;2024-02-26T14:29:42;3.80;;;2.73;;
8435;SDS011;4255;48.730;9.156;2024-02-26T14:32:11;2.50;;;2.30;;
8435;SDS011;4255;48.730;9.156;2024-02-26T14:34:36;2.03;;;1.93;;
8435;SDS011;4255;48.730;9.156;2024-02-26T14:37:02;3.03;;;2.03;;
8435;SDS011;4255;48.730;9.156;2024-02-26T14:39:28;4.00;;;2.00;;
8435;SDS011;4255;48.730;9.156;2024-02-26T14:41:54;2.10;;;2.00;;
8435;SDS011;4255;48.730;9.156;2024-02-26T14:44:20;2.70;;;2.00;;
8435;SDS011;4255;48.730;9.156;2024-02-26T14:46:46;1.77;;;1.67;;
8435;SDS011;4255;48.730;9.156;2024-02-26T14:49:11;1.93;;;1.83;;
8435;SDS011;4255;48.730;9.156;2024-02-26T14:51:37;2.07;;;1.97;;
8435;SDS011;4255;48.730;9.156;2024-02-26T14:54:03;1.20;;;1.20;;
8435;SDS011;4255;48.730;9.156;2024-02-26T14:56:29;1.60;;;1.50;;
8435;SDS011;4255;48.730;9.156;2024-02-26T14:58:55;1.67;;;1.57;;
8435;SDS011;4255;48.730;9.156;2024-02-26T15:01:20;1.87;;;1.77;;
8435;SDS011;4255;48.730;9.156;2024-02-26T15:03:46;1.47;;;1.37;;
8435;SDS011;4255;48.730;9.156;2024-02-26T15:06:12;1.90;;;1.80;;
8435;SDS011;4255;48.730;9.156;2024-02-26T15:08:38;6.33;;;1.90;;
8435;SDS011;4255;48.730;9.156;2024-02-26T15:11:04;2.70;;;2.10;;
8435;SDS011;4255;48.730;9.156;2024-02-26T15:13:30;1.73;;;1.63;;